Time;durP1;ratioP1;P1;durP2;ratioP2;P2;SDS_P1;SDS_P2;PMS_P1;PMS_P2;Temp;Humidity;BMP_temperature;BMP_pressure;BME280_temperature;BME280_humidity;BME280_pressure;Samples;Min_cycle;Max_cycle;Signal;HPM_P1;HPM_P2
2022/03/22 00:00:57;;;;;;;43.50;18.40;;;;;;;21.00;29.08;103128.81;5028788;28;20499;-72
2022/03/22 00:03:24;;;;;;;42.33;18.33;;;;;;;20.82;29.22;103130.88;5061116;28;20029;-72
2022/03/22 00:05:51;;;;;;;41.93;18.53;;;;;;;20.75;30.08;103131.88;5030911;28;20104;-73
2022/03/22 00:08:17;;;;;;;41.90;16.37;;;;;;;20.13;30.81;103135.44;5028695;28;20103;-72
2022/03/22 00:10:43;;;;;;;38.00;16.80;;;;;;;20.09;30.54;103133.72;5028373;28;20025;-72
2022/03/22 00:13:08;;;;;;;42.33;18.40;;;;;;;20.09;30.78;103139.03;5028368;28;20026;-72
2022/03/22 00:15:34;;;;;;;40.07;16.23;;;;;;;20.03;30.51;103136.50;5029071;28;20021;-72
2022/03/22 00:18:00;;;;;;;37.43;16.57;;;;;;;20.31;30.38;103133.44;5028954;28;20362;-72
2022/03/22 00:20:27;;;;;;;38.33;17.40;;;;;;;19.80;30.92;103137.66;5029891;28;20049;-72
2022/03/22 00:22:52;;;;;;;36.80;17.37;;;;;;;20.40;30.00;103130.66;5028611;28;20028;-72
2022/03/22 00:25:17;;;;;;;38.97;17.30;;;;;;;20.39;30.47;103131.53;5028014;28;20116;-72
2022/03/22 00:27:57;;;;;;;39.37;16.77;;;;;;;20.31;29.97;103128.13;5030084;28;20025;-72
2022/03/22 00:30:33;;;;;;;36.30;15.50;;;;;;;20.62;29.65;103138.25;5065788;28;20025;-72
2022/03/22 00:33:04;;;;;;;41.40;16.23;;;;;;;20.47;29.66;103134.97;5032366;28;20027;-72
2022/03/22 00:35:36;;;;;;;38.67;16.63;;;;;;;20.25;30.22;103133.50;5032801;28;20021;-72
2022/03/22 00:38:03;;;;;;;39.83;16.60;;;;;;;20.24;30.21;103137.97;5031638;28;20057;-72
2022/03/22 00:40:29;;;;;;;35.97;16.87;;;;;;;20.06;31.13;103128.47;5033634;28;20104;-71
2022/03/22 00:42:55;;;;;;;41.40;16.73;;;;;;;20.16;30.60;103135.41;5032087;28;20112;-72
2022/03/22 00:45:29;;;;;;;42.17;18.03;;;;;;;20.12;30.71;103130.16;5031702;28;20021;-72
2022/03/22 00:47:56;;;;;;;35.40;15.73;;;;;;;20.00;30.98;103133.84;5032325;28;20021;-72
2022/03/22 00:50:26;;;;;;;39.97;16.20;;;;;;;19.79;31.44;103143.81;5065304;28;20404;-72
2022/03/22 00:52:53;;;;;;;46.40;18.03;;;;;;;19.93;30.98;103126.88;5031327;28;20108;-72
2022/03/22 00:55:21;;;;;;;35.67;15.63;;;;;;;20.07;30.64;103130.25;5032027;28;20470;-72
2022/03/22 00:57:47;;;;;;;36.90;15.10;;;;;;;19.94;30.91;103128.63;5033856;28;20021;-72
2022/03/22 01:00:13;;;;;;;36.57;16.10;;;;;;;20.13;30.41;103135.44;5032361;28;20040;-72
2022/03/22 01:02:42;;;;;;;41.97;16.93;;;;;;;19.90;30.98;103132.22;5065549;28;20029;-71
2022/03/22 01:05:13;;;;;;;40.57;16.83;;;;;;;20.21;30.38;103127.38;5033012;28;20032;-72
2022/03/22 01:07:39;;;;;;;39.23;17.53;;;;;;;20.12;30.02;103139.00;5031611;28;20029;-72
2022/03/22 01:10:07;;;;;;;39.30;15.50;;;;;;;20.30;30.58;103136.97;5064750;28;20481;-72
2022/03/22 01:12:34;;;;;;;37.50;16.27;;;;;;;19.93;30.62;103133.06;5065316;28;20032;-72
2022/03/22 01:14:59;;;;;;;37.90;16.80;;;;;;;20.01;30.81;103130.31;5031033;28;20025;-72
2022/03/22 01:17:25;;;;;;;41.80;17.40;;;;;;;20.10;30.84;103124.88;5031724;28;20103;-72
2022/03/22 01:19:50;;;;;;;39.67;17.23;;;;;;;20.16;30.87;103130.09;5030857;28;20389;-72
2022/03/22 01:22:16;;;;;;;45.33;18.37;;;;;;;19.91;31.02;103134.00;5032344;28;20021;-71
2022/03/22 01:24:42;;;;;;;39.50;17.20;;;;;;;19.81;31.45;103127.91;5033046;28;20026;-72
2022/03/22 01:27:08;;;;;;;41.70;17.80;;;;;;;19.55;32.01;103129.09;5031677;28;20040;-72
2022/03/22 01:29:33;;;;;;;37.37;16.23;;;;;;;19.99;31.05;103134.78;5031857;28;20017;-72
2022/03/22 01:31:59;;;;;;;41.23;17.47;;;;;;;19.73;31.54;103133.28;5032657;28;20052;-72
2022/03/22 01:34:28;;;;;;;40.40;17.33;;;;;;;19.63;31.84;103134.28;5030634;28;20499;-72
2022/03/22 01:36:54;;;;;;;39.73;16.50;;;;;;;19.82;31.33;103135.88;5032604;28;20025;-73
2022/03/22 01:39:19;;;;;;;42.80;18.17;;;;;;;19.28;32.61;103119.66;5030383;28;20505;-72
2022/03/22 01:41:44;;;;;;;40.87;18.53;;;;;;;19.10;32.79;103133.97;5063914;28;20021;-72
2022/03/22 01:44:10;;;;;;;37.80;17.23;;;;;;;19.30;32.71;103121.41;5030952;28;20116;-72
2022/03/22 01:46:37;;;;;;;42.53;17.60;;;;;;;19.26;32.39;103117.03;5031479;28;20123;-72
2022/03/22 01:49:03;;;;;;;39.77;17.23;;;;;;;19.46;32.10;103127.41;5030398;28;20406;-72
2022/03/22 01:51:32;;;;;;;41.33;17.27;;;;;;;19.63;32.32;103113.06;5032266;28;20481;-72
2022/03/22 01:53:57;;;;;;;45.50;18.33;;;;;;;19.27;32.63;103120.53;5030779;28;20465;-72
2022/03/22 01:56:22;;;;;;;39.53;17.10;;;;;;;19.50;32.25;103117.63;5030270;28;20022;-72
2022/03/22 01:58:48;;;;;;;41.73;17.37;;;;;;;19.49;32.44;103111.47;5031291;28;20385;-72
2022/03/22 02:06:45;;;;;;;39.63;17.17;;;;;;;19.50;31.93;103113.19;5032605;28;20076;-72
2022/03/22 02:09:10;;;;;;;41.10;18.27;;;;;;;19.23;32.54;103108.22;5029819;28;20044;-72
2022/03/22 02:11:37;;;;;;;46.80;18.23;;;;;;;18.96;33.13;103115.56;5031020;28;20473;-72
2022/03/22 02:14:03;;;;;;;47.70;18.63;;;;;;;19.25;32.76;103102.00;5063699;28;20060;-72
2022/03/22 02:16:28;;;;;;;44.50;18.40;;;;;;;19.23;32.92;103094.94;5031125;28;20555;-72
2022/03/22 02:18:54;;;;;;;43.37;17.30;;;;;;;19.07;33.17;103097.78;5063757;28;20037;-72
2022/03/22 02:21:21;;;;;;;41.30;17.87;;;;;;;18.93;33.50;103103.22;5030291;28;20041;-72
2022/03/22 02:23:50;;;;;;;42.67;17.97;;;;;;;19.21;32.77;103094.97;5031293;28;20043;-72
2022/03/22 02:26:16;;;;;;;46.43;18.37;;;;;;;19.21;32.80;103104.72;5029642;28;20091;-72
2022/03/22 02:28:43;;;;;;;45.73;19.33;;;;;;;18.97;33.43;103111.97;5030692;28;20167;-72
2022/03/22 02:31:09;;;;;;;48.90;18.37;;;;;;;19.40;32.88;103100.06;5029163;28;20100;-72
2022/03/22 02:33:34;;;;;;;51.43;22.20;;;;;;;19.26;33.39;103110.81;5063673;28;20112;-72
2022/03/22 02:36:00;;;;;;;50.53;20.53;;;;;;;19.45;33.33;103104.44;5031454;28;20079;-73
2022/03/22 02:38:26;;;;;;;53.00;22.07;;;;;;;19.46;33.30;103100.88;5029447;28;20087;-72
2022/03/22 02:40:52;;;;;;;51.67;20.37;;;;;;;19.52;32.95;103099.06;5063619;28;20481;-72
2022/03/22 02:43:17;;;;;;;44.53;19.63;;;;;;;19.71;32.56;103105.88;5029982;28;20022;-72
2022/03/22 02:45:43;;;;;;;47.50;20.33;;;;;;;19.66;32.62;103105.09;5029579;28;20477;-72
2022/03/22 02:48:08;;;;;;;45.03;19.70;;;;;;;19.59;32.71;103092.78;5046312;28;20026;-72
2022/03/22 02:50:33;;;;;;;50.03;20.80;;;;;;;19.62;32.75;103100.72;5030129;28;20044;-72
2022/03/22 02:53:00;;;;;;;43.37;20.17;;;;;;;19.66;32.32;103097.13;5030424;28;20388;-72
2022/03/22 02:55:26;;;;;;;50.30;22.03;;;;;;;19.59;32.66;103106.03;5029870;28;20111;-71
2022/03/22 02:57:51;;;;;;;49.43;22.33;;;;;;;19.56;32.87;103104.28;5031289;28;20052;-71
2022/03/22 03:00:17;;;;;;;53.97;22.63;;;;;;;19.29;33.53;103106.38;5030011;28;20143;-72
2022/03/22 03:02:53;;;;;;;50.30;20.33;;;;;;;19.18;33.63;103102.97;5030033;28;20151;-72
2022/03/22 03:05:20;;;;;;;46.23;20.70;;;;;;;19.72;32.75;103096.16;5030625;28;20029;-72
2022/03/22 03:07:46;;;;;;;51.90;20.70;;;;;;;19.35;33.44;103102.78;5031420;28;20051;-72
2022/03/22 03:10:12;;;;;;;50.53;21.30;;;;;;;19.76;32.91;103106.72;5029332;28;20037;-72
2022/03/22 03:12:38;;;;;;;53.97;23.03;;;;;;;19.41;33.57;103108.03;5029028;28;20417;-72
2022/03/22 03:15:06;;;;;;;51.17;21.87;;;;;;;19.25;33.87;103102.00;5062609;28;20113;-72
2022/03/22 03:17:31;;;;;;;48.23;20.80;;;;;;;19.57;33.03;103099.88;5046176;28;20548;-72
2022/03/22 03:19:57;;;;;;;56.00;21.73;;;;;;;19.35;33.37;103102.78;5061830;28;20116;-72
2022/03/22 03:22:22;;;;;;;48.90;23.67;;;;;;;19.51;33.26;103108.78;5029479;28;20176;-72
2022/03/22 03:24:47;;;;;;;58.17;24.13;;;;;;;19.31;33.67;103107.22;5030827;28;20477;-73
2022/03/22 03:27:13;;;;;;;58.40;24.13;;;;;;;19.56;33.35;103106.06;5028108;28;20450;-72
2022/03/22 03:29:38;;;;;;;57.63;25.53;;;;;;;19.58;32.98;103109.59;5029540;28;20033;-72
2022/03/22 03:32:04;;;;;;;52.77;24.63;;;;;;;19.40;33.59;103103.63;5029204;28;20421;-73
2022/03/22 03:34:30;;;;;;;58.03;25.27;;;;;;;19.27;34.32;103099.31;5028823;28;20029;-72
2022/03/22 03:36:55;;;;;;;57.53;23.87;;;;;;;19.41;34.06;103100.06;5030204;28;20048;-72
2022/03/22 03:39:20;;;;;;;54.00;23.83;;;;;;;19.28;34.49;103101.09;5029061;28;20029;-72
2022/03/22 03:41:56;;;;;;;56.20;23.43;;;;;;;19.04;34.58;103097.81;5028707;28;20112;-72
2022/03/22 03:47:16;;;;;;;52.90;22.70;;;;;;;19.00;34.94;103106.69;5030343;28;20106;-72
2022/03/22 03:50:05;;;;;;;52.50;23.27;;;;;;;19.17;34.71;103105.63;5028598;28;20026;-72
2022/03/22 03:52:33;;;;;;;52.67;21.87;;;;;;;19.21;34.57;103104.72;5029508;28;20018;-73
2022/03/22 03:55:00;;;;;;;46.83;21.40;;;;;;;19.27;34.80;103102.84;5045043;28;20090;-73
2022/03/22 03:57:26;;;;;;;51.83;22.27;;;;;;;19.57;34.17;103103.41;5028982;28;20021;-73
2022/03/22 03:59:53;;;;;;;56.13;24.43;;;;;;;19.48;34.24;103101.75;5028969;28;20485;-72
2022/03/22 04:02:19;;;;;;;56.00;23.23;;;;;;;18.95;35.32;103109.34;5028761;28;20029;-72
2022/03/22 04:04:51;;;;;;;47.80;21.97;;;;;;;19.18;34.90;103104.72;5033226;28;20424;-72
2022/03/22 04:07:18;;;;;;;45.55;21.23;;;;;;;19.33;34.56;103109.88;5033049;28;20500;-72
2022/03/22 04:09:44;;;;;;;52.77;22.90;;;;;;;19.25;34.66;103107.31;5032434;28;20060;-72
2022/03/22 04:12:09;;;;;;;50.93;22.47;;;;;;;19.50;34.13;103112.34;5032451;28;20470;-72
2022/03/22 04:14:35;;;;;;;61.20;26.03;;;;;;;19.32;34.35;103118.72;5066579;28;20070;-72
2022/03/22 04:17:00;;;;;;;52.00;22.77;;;;;;;19.47;34.13;103112.38;5032003;28;20397;-72
2022/03/22 04:19:26;;;;;;;52.70;22.43;;;;;;;19.54;34.04;103118.50;5032702;28;20474;-72
2022/03/22 04:21:52;;;;;;;55.50;23.50;;;;;;;19.36;34.53;103109.84;5033818;28;20527;-72
2022/03/22 04:24:20;;;;;;;56.33;21.90;;;;;;;19.80;33.56;103116.41;5031926;28;20029;-72
2022/03/22 04:26:46;;;;;;;49.73;22.43;;;;;;;19.27;34.36;103115.22;5034441;28;20025;-72
2022/03/22 04:34:44;;;;;;;50.53;23.03;;;;;;;18.79;35.79;103119.19;5034451;28;20115;-72
2022/03/22 04:37:12;;;;;;;49.67;22.40;;;;;;;19.27;34.72;103123.19;5032813;28;20124;-72
2022/03/22 04:39:43;;;;;;;47.20;19.93;;;;;;;19.06;34.81;103126.94;5034135;28;20033;-72
2022/03/22 04:42:08;;;;;;;59.13;22.70;;;;;;;19.13;34.95;103118.91;5032072;28;20036;-72
2022/03/22 04:44:35;;;;;;;53.10;22.33;;;;;;;19.41;34.26;103125.69;5031728;28;20021;-72
2022/03/22 04:47:00;;;;;;;51.80;23.53;;;;;;;19.44;34.53;103128.31;5065613;28;20397;-72
2022/03/22 04:49:27;;;;;;;57.70;24.10;;;;;;;19.45;34.32;103127.41;5033486;28;20029;-72
2022/03/22 04:57:23;;;;;;;50.93;22.63;;;;;;;19.37;34.60;103124.88;5033719;28;20501;-72
2022/03/22 04:59:49;;;;;;;52.37;23.93;;;;;;;19.34;34.39;103130.19;5031780;28;20026;-72
2022/03/22 05:02:15;;;;;;;51.20;22.80;;;;;;;19.47;34.03;103131.81;5031765;28;20029;-72
2022/03/22 05:04:41;;;;;;;48.97;21.50;;;;;;;19.27;34.57;103131.16;5033553;28;20030;-72
2022/03/22 05:07:06;;;;;;;49.33;21.80;;;;;;;19.48;34.21;103136.22;5030940;28;20032;-72
2022/03/22 05:09:32;;;;;;;47.47;21.67;;;;;;;19.09;34.93;103138.38;5032001;28;20029;-72
2022/03/22 05:11:59;;;;;;;56.97;24.00;;;;;;;19.36;34.07;103133.72;5031355;28;20034;-72
2022/03/22 05:14:25;;;;;;;53.77;22.57;;;;;;;18.54;35.45;103144.09;5031804;28;20287;-72
2022/03/22 05:16:50;;;;;;;50.27;22.07;;;;;;;19.18;34.45;103142.72;5032088;28;20034;-72
2022/03/22 05:19:17;;;;;;;50.37;22.87;;;;;;;18.78;35.23;103140.38;5032086;28;20030;-72
2022/03/22 05:21:43;;;;;;;53.27;22.00;;;;;;;19.21;34.37;103137.38;5032119;28;20124;-72
2022/03/22 05:24:08;;;;;;;57.20;22.67;;;;;;;18.75;35.39;103154.56;5047734;28;20111;-73
2022/03/22 05:26:34;;;;;;;51.00;21.83;;;;;;;19.19;34.69;103148.91;5031300;28;20534;-72
2022/03/22 05:29:02;;;;;;;55.63;24.27;;;;;;;19.06;34.77;103141.06;5031775;28;20029;-72
2022/03/22 05:31:27;;;;;;;53.33;23.80;;;;;;;18.79;35.59;103153.63;5064748;28;20438;-72
2022/03/22 05:33:53;;;;;;;61.43;25.27;;;;;;;18.75;36.08;103149.25;5030979;28;20116;-72
2022/03/22 05:36:18;;;;;;;59.47;25.07;;;;;;;18.55;36.23;103161.75;5031382;28;20034;-72
2022/03/22 05:38:44;;;;;;;53.50;24.10;;;;;;;18.69;36.38;103165.19;5031916;28;20036;-72
2022/03/22 05:41:10;;;;;;;59.83;25.13;;;;;;;18.76;36.24;103160.72;5063610;28;20025;-72
2022/03/22 05:43:36;;;;;;;49.73;22.07;;;;;;;18.68;36.25;103162.53;5032823;28;20049;-72
2022/03/22 05:46:03;;;;;;;44.43;20.37;;;;;;;18.70;36.06;103160.75;5031210;28;20338;-72
2022/03/22 05:48:29;;;;;;;62.57;26.10;;;;;;;19.02;35.45;103157.00;5030816;28;20124;-72
2022/03/22 05:50:57;;;;;;;48.77;21.03;;;;;;;19.00;35.07;103154.38;5031168;28;20112;-72
2022/03/22 05:53:23;;;;;;;51.23;22.47;;;;;;;18.80;35.60;103152.72;5032569;28;20026;-72
2022/03/22 05:55:48;;;;;;;47.70;21.23;;;;;;;19.03;35.10;103159.66;5030644;28;20083;-72
2022/03/22 05:58:14;;;;;;;50.00;21.10;;;;;;;19.20;34.47;103161.25;5030702;28;20032;-72
2022/03/22 06:00:39;;;;;;;51.20;21.13;;;;;;;18.86;35.39;103157.09;5031389;28;20017;-72
2022/03/22 06:03:04;;;;;;;54.40;21.13;;;;;;;18.80;35.46;103157.16;5030147;28;20080;-73
2022/03/22 06:05:30;;;;;;;45.80;22.30;;;;;;;18.66;35.45;103165.22;5064639;28;20021;-72
2022/03/22 06:07:57;;;;;;;54.27;22.70;;;;;;;18.54;36.00;103170.59;5064151;28;20460;-72
2022/03/22 06:10:23;;;;;;;54.70;21.93;;;;;;;18.14;36.74;103175.19;5030443;28;20068;-72
2022/03/22 06:12:51;;;;;;;54.13;24.07;;;;;;;18.73;35.41;103172.22;5031233;28;20057;-72
2022/03/22 06:15:29;;;;;;;55.73;23.00;;;;;;;18.72;35.91;103166.94;5030087;28;20048;-72
2022/03/22 06:17:55;;;;;;;49.07;22.53;;;;;;;18.64;36.15;103172.28;5030799;28;20117;-72
2022/03/22 06:20:23;;;;;;;57.10;22.60;;;;;;;18.58;36.71;103178.50;5063580;28;20049;-72
2022/03/22 06:22:49;;;;;;;50.60;23.67;;;;;;;18.23;37.14;103178.69;5030277;28;20037;-72
2022/03/22 06:25:16;;;;;;;45.13;21.03;;;;;;;18.98;35.65;103183.53;5029676;28;20527;-72
2022/03/22 06:27:43;;;;;;;46.07;21.70;;;;;;;18.90;35.96;103189.78;5032117;28;20034;-72
2022/03/22 06:30:09;;;;;;;50.20;22.33;;;;;;;18.41;37.29;103180.34;5029273;28;20022;-72
2022/03/22 06:32:42;;;;;;;52.80;22.10;;;;;;;18.31;37.12;103193.66;5031952;28;20029;-72
2022/03/22 06:35:10;;;;;;;45.85;21.05;;;;;;;18.89;36.30;103195.97;5063402;28;20083;-72
2022/03/22 06:37:36;;;;;;;50.63;21.70;;;;;;;18.69;36.36;103194.31;5029860;28;20018;-72
2022/03/22 06:40:02;;;;;;;44.93;20.90;;;;;;;19.30;35.09;103179.72;5063651;28;20025;-72
2022/03/22 06:42:27;;;;;;;51.97;21.33;;;;;;;19.63;34.66;103184.69;5031258;28;20026;-72
2022/03/22 06:44:52;;;;;;;51.60;21.87;;;;;;;19.86;34.54;103191.56;5062598;28;20029;-72
2022/03/22 06:47:18;;;;;;;44.50;22.27;;;;;;;19.48;34.66;103188.38;5030121;28;20091;-72
2022/03/22 06:49:43;;;;;;;46.57;21.00;;;;;;;19.47;35.22;103187.50;5030242;28;20405;-72
2022/03/22 06:52:09;;;;;;;43.60;20.97;;;;;;;19.82;34.82;103188.94;5029019;28;20052;-72
2022/03/22 06:54:35;;;;;;;42.63;20.23;;;;;;;19.93;34.46;103190.56;5030241;28;20022;-72
2022/03/22 06:57:01;;;;;;;46.60;19.53;;;;;;;19.95;34.15;103196.75;5031039;28;20021;-72
2022/03/22 06:59:26;;;;;;;44.27;19.47;;;;;;;19.74;34.64;103184.56;5029334;28;20028;-72
2022/03/22 07:01:52;;;;;;;43.93;21.10;;;;;;;20.02;34.24;103185.16;5063066;28;20025;-74
2022/03/22 07:04:17;;;;;;;42.37;20.13;;;;;;;19.73;35.26;103196.06;5029893;28;20132;-73
2022/03/22 07:06:45;;;;;;;50.40;21.33;;;;;;;19.45;35.46;103199.91;5029465;28;20056;-73
2022/03/22 07:09:10;;;;;;;40.50;19.70;;;;;;;20.22;34.09;103194.63;5030629;28;20152;-72
2022/03/22 07:11:49;;;;;;;42.93;20.73;;;;;;;19.93;34.41;103201.19;5029459;28;20111;-73
2022/03/22 07:14:19;;;;;;;46.67;21.20;;;;;;;20.15;34.56;103201.78;5062469;28;20478;-72
2022/03/22 07:16:47;;;;;;;44.63;21.00;;;;;;;19.97;34.65;103194.94;5063147;28;20067;-72
2022/03/22 07:19:13;;;;;;;39.27;19.03;;;;;;;20.50;33.65;103197.78;5028538;28;20036;-73
2022/03/22 07:21:39;;;;;;;38.27;19.67;;;;;;;20.79;33.25;103196.50;5062985;28;20111;-73
2022/03/22 07:24:05;;;;;;;42.40;18.97;;;;;;;20.76;33.03;103200.09;5029507;28;20469;-73
2022/03/22 07:26:30;;;;;;;43.60;20.57;;;;;;;20.71;33.61;103201.94;5030302;28;20100;-73
2022/03/22 07:28:56;;;;;;;35.97;18.73;;;;;;;19.58;35.43;103199.78;5030629;28;20457;-73
2022/03/22 07:31:21;;;;;;;44.37;21.17;;;;;;;20.78;33.43;103206.25;5063018;28;20029;-72
2022/03/22 07:33:46;;;;;;;40.90;19.63;;;;;;;21.41;32.69;103201.66;5062282;28;20060;-73
2022/03/22 07:36:12;;;;;;;37.27;18.47;;;;;;;20.64;33.28;103205.56;5028941;28;20108;-72
2022/03/22 07:38:37;;;;;;;40.67;18.47;;;;;;;19.67;35.23;103211.19;5028897;28;20065;-73
2022/03/22 07:41:03;;;;;;;36.17;18.43;;;;;;;19.35;36.12;103219.44;5028699;28;20128;-72
2022/03/22 07:43:29;;;;;;;41.50;19.90;;;;;;;20.32;34.61;103215.72;5029233;28;20033;-73
2022/03/22 07:45:55;;;;;;;35.77;18.17;;;;;;;21.49;33.19;103213.03;5029178;28;20495;-73
2022/03/22 07:48:20;;;;;;;41.90;20.03;;;;;;;21.79;32.75;103213.38;5028252;28;20044;-72
2022/03/22 07:53:29;;;;;;;38.10;18.77;;;;;;;20.78;34.70;103214.22;5031167;28;20094;-72
2022/03/22 07:55:55;;;;;;;41.17;19.70;;;;;;;20.17;35.97;103222.13;5028682;28;20462;-73
2022/03/22 07:58:20;;;;;;;34.27;17.83;;;;;;;21.88;33.98;103220.28;5030155;28;20036;-73
2022/03/22 08:00:46;;;;;;;37.47;17.90;;;;;;;24.27;30.24;103220.66;5028605;28;20029;-73
2022/03/22 08:03:15;;;;;;;37.00;17.67;;;;;;;26.08;28.14;103215.44;5028768;28;20037;-73
2022/03/22 08:05:44;;;;;;;37.47;18.02;;;;;;;25.82;26.75;103217.25;5030270;28;20075;-73
2022/03/22 08:08:09;;;;;;;32.38;16.17;;;;;;;26.50;26.24;103212.00;5027968;28;20026;-73
2022/03/22 08:10:34;;;;;;;31.05;16.95;;;;;;;26.95;25.74;103222.75;5029278;28;20470;-73
2022/03/22 08:13:00;;;;;;;32.10;16.25;;;;;;;25.69;26.65;103221.31;5062485;28;20026;-73
2022/03/22 08:15:26;;;;;;;30.23;16.15;;;;;;;24.81;28.22;103224.31;5061351;28;20033;-73
2022/03/22 08:17:51;;;;;;;30.75;16.88;;;;;;;25.57;26.74;103231.56;5028937;28;20473;-72
2022/03/22 08:20:18;;;;;;;30.70;15.45;;;;;;;25.89;26.73;103223.28;5028713;28;20057;-73
2022/03/22 08:22:49;;;;;;;30.45;16.27;;;;;;;25.04;27.72;103229.78;5028374;28;20163;-73
2022/03/22 08:25:15;;;;;;;30.30;15.63;;;;;;;27.59;24.50;103225.31;5061794;28;20484;-73
2022/03/22 08:27:41;;;;;;;31.52;15.90;;;;;;;28.02;23.70;103224.34;5030438;28;20087;-73
2022/03/22 08:30:07;;;;;;;27.83;16.17;;;;;;;26.78;25.13;103235.06;5028747;28;20104;-72
2022/03/22 08:32:33;;;;;;;30.17;15.25;;;;;;;27.95;24.04;103233.59;5029103;28;20033;-73
2022/03/22 08:34:58;;;;;;;26.25;14.35;;;;;;;27.03;25.31;103242.06;5028787;28;20024;-73
2022/03/22 08:37:23;;;;;;;24.92;14.25;;;;;;;27.40;24.51;103237.84;5028398;28;20025;-73
2022/03/22 08:39:50;;;;;;;29.15;15.50;;;;;;;27.64;24.26;103229.63;5029079;28;20048;-73
2022/03/22 08:42:16;;;;;;;24.75;14.98;;;;;;;28.09;23.48;103236.53;5063302;28;20041;-70
2022/03/22 08:44:41;;;;;;;20.95;13.80;;;;;;;28.16;23.43;103232.59;5045457;28;20033;-70
2022/03/22 08:47:07;;;;;;;22.30;13.75;;;;;;;29.60;22.06;103233.56;5062105;28;20025;-71
2022/03/22 08:49:33;;;;;;;25.65;14.15;;;;;;;28.78;23.17;103245.78;5031720;28;20044;-71
2022/03/22 08:52:00;;;;;;;23.17;14.05;;;;;;;28.34;23.38;103247.00;5032228;28;20026;-70
2022/03/22 08:54:25;;;;;;;23.58;13.70;;;;;;;24.88;27.59;103256.19;5032622;28;20079;-71
2022/03/22 08:56:50;;;;;;;24.45;14.43;;;;;;;26.66;26.00;103243.56;5032939;28;20060;-70
2022/03/22 08:59:16;;;;;;;24.83;13.65;;;;;;;28.93;23.25;103239.66;5031927;28;20029;-71
2022/03/22 09:01:41;;;;;;;24.77;13.35;;;;;;;28.53;23.32;103241.59;5066137;28;20033;-71
2022/03/22 09:06:50;;;;;;;29.52;14.18;;;;;;;28.99;23.31;103249.25;5034142;28;20083;-71
2022/03/22 09:09:16;;;;;;;23.42;13.27;;;;;;;28.84;23.05;103255.38;5033816;28;20033;-70
2022/03/22 09:11:41;;;;;;;21.67;13.88;;;;;;;30.10;21.59;103247.94;5032325;28;20175;-70
2022/03/22 09:14:06;;;;;;;21.95;12.40;;;;;;;28.50;22.36;103247.13;5032165;28;20384;-73
2022/03/22 09:16:32;;;;;;;19.13;12.60;;;;;;;29.73;21.65;103241.84;5032842;28;20035;-70
2022/03/22 09:18:58;;;;;;;23.70;13.30;;;;;;;29.91;21.80;103245.38;5033723;28;20107;-71
2022/03/22 09:21:24;;;;;;;21.23;13.10;;;;;;;29.54;21.69;103240.16;5032070;28;20084;-71
2022/03/22 09:23:49;;;;;;;21.80;13.10;;;;;;;29.55;21.94;103247.28;5033773;28;20466;-71
2022/03/22 09:26:15;;;;;;;19.65;12.43;;;;;;;29.63;22.08;103243.28;5031216;28;20021;-71
2022/03/22 09:28:41;;;;;;;25.50;12.70;;;;;;;30.49;21.17;103243.97;5049078;28;20052;-71
2022/03/22 09:31:07;;;;;;;20.75;12.32;;;;;;;29.79;22.08;103238.81;5032041;28;20028;-70
2022/03/22 09:33:32;;;;;;;23.95;12.95;;;;;;;31.48;20.13;103232.75;5033408;28;20402;-71
2022/03/22 09:35:58;;;;;;;22.30;13.25;;;;;;;28.63;22.65;103243.84;5031981;28;20029;-70
2022/03/22 09:38:24;;;;;;;21.45;12.98;;;;;;;30.17;21.32;103238.56;5032135;28;20675;-71
2022/03/22 09:40:53;;;;;;;23.60;13.27;;;;;;;31.16;20.50;103232.91;5033265;28;20030;-71
2022/03/22 09:43:23;;;;;;;22.15;13.15;;;;;;;32.22;19.42;103233.53;5033073;28;20457;-70
2022/03/22 09:45:50;;;;;;;24.13;12.77;;;;;;;31.45;20.24;103238.34;5031860;28;20079;-71
2022/03/22 09:48:17;;;;;;;23.42;13.63;;;;;;;32.34;19.74;103239.09;5047075;28;20408;-71
2022/03/22 09:53:27;;;;;;;20.67;12.85;;;;;;;32.38;19.16;103244.19;5032654;28;20444;-71
2022/03/22 09:55:53;;;;;;;21.08;13.82;;;;;;;32.41;19.63;103240.41;5015409;28;20029;-71
2022/03/22 09:58:18;;;;;;;21.95;13.65;;;;;;;31.19;20.47;103246.22;5031736;28;20029;-71
2022/03/22 10:00:43;;;;;;;24.95;13.60;;;;;;;30.67;21.14;103251.97;5032105;28;20021;-71
2022/03/22 10:03:18;;;;;;;21.13;13.02;;;;;;;31.09;20.75;103242.31;5047605;28;20052;-70
2022/03/22 10:05:45;;;;;;;21.58;14.02;;;;;;;33.43;18.34;103237.13;5064946;28;20021;-71
2022/03/22 10:08:11;;;;;;;22.38;13.43;;;;;;;32.34;19.70;103230.97;5031990;28;20029;-70
2022/03/22 10:10:52;;;;;;;18.30;12.75;;;;;;;32.27;19.73;103234.09;5032974;28;20028;-71
2022/03/22 10:13:17;;;;;;;26.35;14.07;;;;;;;31.37;20.41;103229.84;5031223;28;20661;-70
2022/03/22 10:15:43;;;;;;;23.23;13.65;;;;;;;31.47;20.39;103231.00;5030745;28;20033;-71
2022/03/22 10:18:10;;;;;;;22.95;14.23;;;;;;;32.03;20.25;103230.25;5032180;28;20040;-70
2022/03/22 10:20:41;;;;;;;23.98;14.40;;;;;;;33.54;18.37;103232.78;5047682;28;20064;-70
2022/03/22 10:23:10;;;;;;;18.00;12.18;;;;;;;32.67;18.81;103232.41;5030286;28;20078;-71
2022/03/22 10:25:39;;;;;;;25.00;13.38;;;;;;;31.82;19.83;103230.66;5031147;28;20481;-70
2022/03/22 10:28:06;;;;;;;23.13;13.23;;;;;;;34.52;17.79;103234.78;5030919;28;20466;-72
2022/03/22 10:30:34;;;;;;;23.58;12.88;;;;;;;34.72;17.63;103230.53;5047182;28;20049;-70
2022/03/22 10:33:00;;;;;;;25.92;16.33;;;;;;;33.87;18.52;103225.94;5031076;28;20040;-70
2022/03/22 10:35:36;;;;;;;21.50;13.57;;;;;;;33.94;18.51;103219.97;5031870;28;20040;-70
2022/03/22 10:38:08;;;;;;;23.83;13.80;;;;;;;34.30;17.89;103231.81;5063928;28;20032;-71
2022/03/22 10:40:41;;;;;;;23.38;14.35;;;;;;;34.18;17.92;103224.56;5030872;28;20102;-70
2022/03/22 10:43:07;;;;;;;23.15;13.88;;;;;;;34.11;17.49;103216.00;5063313;28;20029;-71
2022/03/22 10:45:46;;;;;;;20.70;13.48;;;;;;;34.18;17.18;103227.28;5047468;28;20494;-71
2022/03/22 10:48:23;;;;;;;22.20;12.95;;;;;;;34.24;17.37;103226.81;5063367;28;20037;-71
2022/03/22 10:50:49;;;;;;;22.35;12.65;;;;;;;33.97;17.35;103222.44;5030385;28;20025;-71
2022/03/22 10:53:17;;;;;;;22.98;13.82;;;;;;;32.90;18.23;103218.19;5031346;28;20032;-70
2022/03/22 10:55:44;;;;;;;22.70;13.13;;;;;;;33.71;17.78;103224.31;5030982;28;20025;-71
2022/03/22 10:58:13;;;;;;;20.40;12.55;;;;;;;35.25;16.67;103222.78;5030747;28;20036;-71
2022/03/22 11:00:42;;;;;;;22.45;12.82;;;;;;;34.10;16.45;103221.53;5030798;28;20102;-71
2022/03/22 11:03:08;;;;;;;17.65;11.82;;;;;;;33.85;17.39;103220.63;5031251;28;20045;-71
2022/03/22 11:05:34;;;;;;;24.15;12.82;;;;;;;33.21;17.58;103229.63;5029938;28;20023;-70
2022/03/22 11:07:59;;;;;;;22.73;13.15;;;;;;;33.85;17.38;103219.78;5030095;28;20025;-71
2022/03/22 11:10:28;;;;;;;19.77;12.07;;;;;;;33.43;17.32;103220.03;5030137;28;20110;-71
2022/03/22 11:12:54;;;;;;;20.42;11.65;;;;;;;34.82;15.83;103224.31;5029618;28;20021;-71
2022/03/22 11:15:20;;;;;;;21.05;11.60;;;;;;;34.36;16.67;103224.19;5031367;28;20389;-70
2022/03/22 11:17:49;;;;;;;19.13;11.35;;;;;;;35.58;15.69;103212.97;5063102;28;20036;-71
2022/03/22 11:20:15;;;;;;;18.33;11.25;;;;;;;34.77;15.80;103218.31;5029153;28;20472;-71
2022/03/22 11:22:49;;;;;;;17.73;10.77;;;;;;;34.79;15.54;103215.53;5063374;28;20087;-71
2022/03/22 11:25:18;;;;;;;12.07;7.63;;;;;;;33.97;14.84;103214.31;5029079;28;20056;-71
2022/03/22 11:28:14;;;;;;;17.95;10.13;;;;;;;34.82;15.21;103215.31;5062663;28;20120;-71
2022/03/22 11:30:40;;;;;;;15.32;9.52;;;;;;;34.01;16.09;103204.13;5057692;28;20048;-71
2022/03/22 11:35:57;;;;;;;14.38;8.60;;;;;;;34.95;14.30;103204.34;5031519;28;20040;-71
2022/03/22 11:38:43;;;;;;;17.52;9.50;;;;;;;34.38;14.73;103211.41;5029766;28;20573;-71